sensor_id;sensor_type;location;lat;lon;timestamp;P1;durP1;ratioP1;P2;durP2;ratioP2
3297;SDS011;1661;53.572;10.174;2024-01-06T00:02:07;8.63;;;7.70;;
3297;SDS011;1661;53.572;10.174;2024-01-06T00:04:34;7.70;;;7.00;;
3297;SDS011;1661;53.572;10.174;2024-01-06T00:07:02;10.98;;;6.93;;
3297;SDS011;1661;53.572;10.174;2024-01-06T00:09:29;12.48;;;7.85;;
3297;SDS011;1661;53.572;10.174;2024-01-06T00:11:56;13.43;;;7.82;;
3297;SDS011;1661;53.572;10.174;2024-01-06T00:14:23;9.27;;;7.90;;
3297;SDS011;1661;53.572;10.174;2024-01-06T00:16:49;11.27;;;9.07;;
3297;SDS011;1661;53.572;10.174;2024-01-06T00:19:16;10.13;;;7.90;;
3297;SDS011;1661;53.572;10.174;2024-01-06T00:21:43;13.02;;;7.78;;
3297;SDS011;1661;53.572;10.174;2024-01-06T00:24:11;8.77;;;7.25;;
3297;SDS011;1661;53.572;10.174;2024-01-06T00:26:38;13.98;;;7.88;;
3297;SDS011;1661;53.572;10.174;2024-01-06T00:29:05;9.65;;;7.53;;
3297;SDS011;1661;53.572;10.174;2024-01-06T00:31:31;10.15;;;8.40;;
3297;SDS011;1661;53.572;10.174;2024-01-06T00:33:58;12.63;;;8.85;;
3297;SDS011;1661;53.572;10.174;2024-01-06T00:36:26;13.27;;;9.20;;
3297;SDS011;1661;53.572;10.174;2024-01-06T00:38:52;8.80;;;7.70;;
3297;SDS011;1661;53.572;10.174;2024-01-06T00:41:20;8.90;;;7.55;;
3297;SDS011;1661;53.572;10.174;2024-01-06T00:43:47;11.80;;;7.93;;
3297;SDS011;1661;53.572;10.174;2024-01-06T00:46:14;15.98;;;9.23;;
3297;SDS011;1661;53.572;10.174;2024-01-06T00:48:41;12.38;;;7.80;;
3297;SDS011;1661;53.572;10.174;2024-01-06T00:51:08;9.05;;;7.40;;
3297;SDS011;1661;53.572;10.174;2024-01-06T00:53:34;11.75;;;8.63;;
3297;SDS011;1661;53.572;10.174;2024-01-06T00:56:01;14.65;;;9.50;;
3297;SDS011;1661;53.572;10.174;2024-01-06T00:58:30;13.48;;;8.00;;
3297;SDS011;1661;53.572;10.174;2024-01-06T01:00:56;15.27;;;8.68;;
3297;SDS011;1661;53.572;10.174;2024-01-06T01:03:23;11.20;;;8.85;;
3297;SDS011;1661;53.572;10.174;2024-01-06T01:05:50;10.13;;;7.68;;
3297;SDS011;1661;53.572;10.174;2024-01-06T01:08:17;10.20;;;7.93;;
3297;SDS011;1661;53.572;10.174;2024-01-06T01:10:44;9.38;;;7.50;;
3297;SDS011;1661;53.572;10.174;2024-01-06T01:13:11;15.85;;;8.43;;
3297;SDS011;1661;53.572;10.174;2024-01-06T01:15:39;10.90;;;8.55;;
3297;SDS011;1661;53.572;10.174;2024-01-06T01:18:06;10.13;;;8.57;;
3297;SDS011;1661;53.572;10.174;2024-01-06T01:20:32;9.35;;;7.97;;
3297;SDS011;1661;53.572;10.174;2024-01-06T01:22:59;8.05;;;7.28;;
3297;SDS011;1661;53.572;10.174;2024-01-06T01:25:26;9.68;;;8.45;;
3297;SDS011;1661;53.572;10.174;2024-01-06T01:27:53;11.65;;;8.02;;
3297;SDS011;1661;53.572;10.174;2024-01-06T01:30:19;10.07;;;7.90;;
3297;SDS011;1661;53.572;10.174;2024-01-06T01:32:47;11.02;;;8.50;;
3297;SDS011;1661;53.572;10.174;2024-01-06T01:35:14;9.90;;;8.05;;
3297;SDS011;1661;53.572;10.174;2024-01-06T01:37:41;10.45;;;7.93;;
3297;SDS011;1661;53.572;10.174;2024-01-06T01:40:08;11.10;;;7.40;;
3297;SDS011;1661;53.572;10.174;2024-01-06T01:42:35;13.90;;;8.38;;
3297;SDS011;1661;53.572;10.174;2024-01-06T01:45:02;15.18;;;7.43;;
3297;SDS011;1661;53.572;10.174;2024-01-06T01:47:30;8.18;;;7.38;;
3297;SDS011;1661;53.572;10.174;2024-01-06T01:49:58;11.50;;;8.75;;
3297;SDS011;1661;53.572;10.174;2024-01-06T01:52:25;16.35;;;9.75;;
3297;SDS011;1661;53.572;10.174;2024-01-06T01:54:53;14.18;;;8.88;;
3297;SDS011;1661;53.572;10.174;2024-01-06T01:57:19;11.98;;;8.50;;
3297;SDS011;1661;53.572;10.174;2024-01-06T01:59:49;11.15;;;7.93;;
3297;SDS011;1661;53.572;10.174;2024-01-06T02:02:17;10.85;;;8.55;;
3297;SDS011;1661;53.572;10.174;2024-01-06T02:04:44;12.60;;;9.40;;
3297;SDS011;1661;53.572;10.174;2024-01-06T02:07:13;10.77;;;7.88;;
3297;SDS011;1661;53.572;10.174;2024-01-06T02:09:39;10.13;;;8.52;;
3297;SDS011;1661;53.572;10.174;2024-01-06T02:12:06;8.77;;;7.65;;
3297;SDS011;1661;53.572;10.174;2024-01-06T02:14:33;12.10;;;8.38;;
3297;SDS011;1661;53.572;10.174;2024-01-06T02:17:00;9.73;;;7.70;;
3297;SDS011;1661;53.572;10.174;2024-01-06T02:19:27;10.38;;;7.03;;
3297;SDS011;1661;53.572;10.174;2024-01-06T02:21:55;7.72;;;6.68;;
3297;SDS011;1661;53.572;10.174;2024-01-06T02:24:22;13.13;;;7.75;;
3297;SDS011;1661;53.572;10.174;2024-01-06T02:26:48;13.57;;;8.40;;
3297;SDS011;1661;53.572;10.174;2024-01-06T02:29:15;7.75;;;7.07;;
3297;SDS011;1661;53.572;10.174;2024-01-06T02:31:42;11.23;;;7.97;;
3297;SDS011;1661;53.572;10.174;2024-01-06T02:34:09;8.20;;;7.05;;
3297;SDS011;1661;53.572;10.174;2024-01-06T02:36:36;9.73;;;7.85;;
3297;SDS011;1661;53.572;10.174;2024-01-06T02:39:04;12.80;;;9.18;;
3297;SDS011;1661;53.572;10.174;2024-01-06T02:41:31;7.60;;;6.82;;
3297;SDS011;1661;53.572;10.174;2024-01-06T02:43:58;8.40;;;7.38;;
3297;SDS011;1661;53.572;10.174;2024-01-06T02:46:27;9.85;;;7.95;;
3297;SDS011;1661;53.572;10.174;2024-01-06T02:48:54;11.00;;;8.25;;
3297;SDS011;1661;53.572;10.174;2024-01-06T02:51:21;10.30;;;8.45;;
3297;SDS011;1661;53.572;10.174;2024-01-06T02:53:48;8.55;;;6.65;;
3297;SDS011;1661;53.572;10.174;2024-01-06T02:56:16;10.23;;;8.30;;
3297;SDS011;1661;53.572;10.174;2024-01-06T02:58:42;9.95;;;8.25;;
3297;SDS011;1661;53.572;10.174;2024-01-06T03:01:10;7.25;;;6.53;;
3297;SDS011;1661;53.572;10.174;2024-01-06T03:03:38;7.85;;;6.40;;
3297;SDS011;1661;53.572;10.174;2024-01-06T03:06:04;7.85;;;6.32;;
3297;SDS011;1661;53.572;10.174;2024-01-06T03:08:31;7.93;;;6.80;;
3297;SDS011;1661;53.572;10.174;2024-01-06T03:10:59;8.95;;;6.60;;
3297;SDS011;1661;53.572;10.174;2024-01-06T03:13:28;9.30;;;8.05;;
3297;SDS011;1661;53.572;10.174;2024-01-06T03:15:55;9.65;;;7.72;;
3297;SDS011;1661;53.572;10.174;2024-01-06T03:18:22;9.88;;;8.23;;
3297;SDS011;1661;53.572;10.174;2024-01-06T03:20:48;9.90;;;7.88;;
3297;SDS011;1661;53.572;10.174;2024-01-06T03:23:15;7.88;;;7.18;;
3297;SDS011;1661;53.572;10.174;2024-01-06T03:25:42;9.82;;;6.90;;
3297;SDS011;1661;53.572;10.174;2024-01-06T03:28:09;7.85;;;6.90;;
3297;SDS011;1661;53.572;10.174;2024-01-06T03:30:37;8.95;;;7.25;;
3297;SDS011;1661;53.572;10.174;2024-01-06T03:33:04;11.55;;;8.32;;
3297;SDS011;1661;53.572;10.174;2024-01-06T03:35:31;12.27;;;7.93;;
3297;SDS011;1661;53.572;10.174;2024-01-06T03:37:57;10.77;;;8.43;;
3297;SDS011;1661;53.572;10.174;2024-01-06T03:40:24;9.27;;;8.43;;
3297;SDS011;1661;53.572;10.174;2024-01-06T03:42:50;11.80;;;7.65;;
3297;SDS011;1661;53.572;10.174;2024-01-06T03:45:18;8.10;;;7.40;;
3297;SDS011;1661;53.572;10.174;2024-01-06T03:47:48;11.25;;;9.63;;
3297;SDS011;1661;53.572;10.174;2024-01-06T03:50:15;8.65;;;7.75;;
3297;SDS011;1661;53.572;10.174;2024-01-06T03:52:41;8.68;;;7.88;;
3297;SDS011;1661;53.572;10.174;2024-01-06T03:55:08;18.98;;;8.05;;
3297;SDS011;1661;53.572;10.174;2024-01-06T03:57:35;10.43;;;9.43;;
3297;SDS011;1661;53.572;10.174;2024-01-06T04:00:02;9.70;;;7.95;;
3297;SDS011;1661;53.572;10.174;2024-01-06T04:02:30;13.10;;;8.35;;
3297;SDS011;1661;53.572;10.174;2024-01-06T04:04:58;10.65;;;8.18;;
3297;SDS011;1661;53.572;10.174;2024-01-06T04:07:24;10.02;;;8.30;;
3297;SDS011;1661;53.572;10.174;2024-01-06T04:09:51;14.32;;;9.05;;
3297;SDS011;1661;53.572;10.174;2024-01-06T04:12:18;11.63;;;8.70;;
3297;SDS011;1661;53.572;10.174;2024-01-06T04:14:45;9.85;;;8.85;;
3297;SDS011;1661;53.572;10.174;2024-01-06T04:17:11;9.63;;;7.93;;
3297;SDS011;1661;53.572;10.174;2024-01-06T04:19:38;12.77;;;9.38;;
3297;SDS011;1661;53.572;10.174;2024-01-06T04:22:06;12.25;;;9.70;;
3297;SDS011;1661;53.572;10.174;2024-01-06T04:24:33;8.77;;;7.82;;
3297;SDS011;1661;53.572;10.174;2024-01-06T04:27:02;8.60;;;7.28;;
3297;SDS011;1661;53.572;10.174;2024-01-06T04:29:29;8.23;;;7.43;;
3297;SDS011;1661;53.572;10.174;2024-01-06T04:31:56;12.40;;;9.68;;
3297;SDS011;1661;53.572;10.174;2024-01-06T04:34:23;8.88;;;7.93;;
3297;SDS011;1661;53.572;10.174;2024-01-06T04:36:49;9.98;;;8.68;;
3297;SDS011;1661;53.572;10.174;2024-01-06T04:39:17;11.90;;;8.95;;
3297;SDS011;1661;53.572;10.174;2024-01-06T04:41:44;11.40;;;9.60;;
3297;SDS011;1661;53.572;10.174;2024-01-06T04:44:11;13.18;;;9.45;;
3297;SDS011;1661;53.572;10.174;2024-01-06T04:46:38;16.75;;;11.55;;
3297;SDS011;1661;53.572;10.174;2024-01-06T04:49:04;11.07;;;8.77;;
3297;SDS011;1661;53.572;10.174;2024-01-06T04:51:31;9.45;;;8.45;;
3297;SDS011;1661;53.572;10.174;2024-01-06T04:53:58;10.48;;;7.93;;
3297;SDS011;1661;53.572;10.174;2024-01-06T04:56:26;12.13;;;8.88;;
3297;SDS011;1661;53.572;10.174;2024-01-06T04:58:53;10.85;;;9.32;;
3297;SDS011;1661;53.572;10.174;2024-01-06T05:01:20;13.70;;;9.15;;
3297;SDS011;1661;53.572;10.174;2024-01-06T05:03:47;14.63;;;9.93;;
3297;SDS011;1661;53.572;10.174;2024-01-06T05:06:13;13.65;;;9.20;;
3297;SDS011;1661;53.572;10.174;2024-01-06T05:08:40;13.43;;;10.32;;
3297;SDS011;1661;53.572;10.174;2024-01-06T05:11:09;13.88;;;8.73;;
3297;SDS011;1661;53.572;10.174;2024-01-06T05:13:38;9.88;;;8.30;;
3297;SDS011;1661;53.572;10.174;2024-01-06T05:16:05;14.98;;;9.05;;
3297;SDS011;1661;53.572;10.174;2024-01-06T05:18:33;16.58;;;10.77;;
3297;SDS011;1661;53.572;10.174;2024-01-06T05:21:03;11.18;;;9.93;;
3297;SDS011;1661;53.572;10.174;2024-01-06T05:23:30;13.32;;;10.00;;
3297;SDS011;1661;53.572;10.174;2024-01-06T05:25:56;13.27;;;10.80;;
3297;SDS011;1661;53.572;10.174;2024-01-06T05:28:23;11.50;;;9.27;;
3297;SDS011;1661;53.572;10.174;2024-01-06T05:30:51;14.63;;;11.30;;
3297;SDS011;1661;53.572;10.174;2024-01-06T05:33:18;12.38;;;9.27;;
3297;SDS011;1661;53.572;10.174;2024-01-06T05:35:45;11.50;;;9.13;;
3297;SDS011;1661;53.572;10.174;2024-01-06T05:38:11;9.90;;;8.50;;
3297;SDS011;1661;53.572;10.174;2024-01-06T05:40:38;12.30;;;9.88;;
3297;SDS011;1661;53.572;10.174;2024-01-06T05:43:05;12.00;;;9.18;;
3297;SDS011;1661;53.572;10.174;2024-01-06T05:45:32;19.42;;;11.38;;
3297;SDS011;1661;53.572;10.174;2024-01-06T05:48:00;18.73;;;11.98;;
3297;SDS011;1661;53.572;10.174;2024-01-06T05:50:26;12.25;;;8.75;;
3297;SDS011;1661;53.572;10.174;2024-01-06T05:52:53;10.18;;;8.60;;
3297;SDS011;1661;53.572;10.174;2024-01-06T05:55:20;16.90;;;13.05;;
3297;SDS011;1661;53.572;10.174;2024-01-06T05:57:47;17.65;;;12.18;;
3297;SDS011;1661;53.572;10.174;2024-01-06T06:00:16;13.88;;;10.05;;
3297;SDS011;1661;53.572;10.174;2024-01-06T06:02:43;12.75;;;9.20;;
3297;SDS011;1661;53.572;10.174;2024-01-06T06:05:12;11.20;;;10.10;;
3297;SDS011;1661;53.572;10.174;2024-01-06T06:07:39;12.23;;;9.05;;
3297;SDS011;1661;53.572;10.174;2024-01-06T06:10:06;14.35;;;10.23;;
3297;SDS011;1661;53.572;10.174;2024-01-06T06:12:34;16.73;;;10.75;;
3297;SDS011;1661;53.572;10.174;2024-01-06T06:15:01;15.02;;;10.35;;
3297;SDS011;1661;53.572;10.174;2024-01-06T06:17:29;14.10;;;9.93;;
3297;SDS011;1661;53.572;10.174;2024-01-06T06:19:56;13.40;;;11.13;;
3297;SDS011;1661;53.572;10.174;2024-01-06T06:22:24;10.25;;;8.93;;
3297;SDS011;1661;53.572;10.174;2024-01-06T06:24:55;15.60;;;9.02;;
3297;SDS011;1661;53.572;10.174;2024-01-06T06:27:22;13.73;;;11.43;;
3297;SDS011;1661;53.572;10.174;2024-01-06T06:29:49;17.65;;;12.82;;
3297;SDS011;1661;53.572;10.174;2024-01-06T06:32:15;15.98;;;10.77;;
3297;SDS011;1661;53.572;10.174;2024-01-06T06:34:42;17.70;;;11.65;;
3297;SDS011;1661;53.572;10.174;2024-01-06T06:37:09;17.02;;;11.70;;
3297;SDS011;1661;53.572;10.174;2024-01-06T06:39:37;13.07;;;9.05;;
3297;SDS011;1661;53.572;10.174;2024-01-06T06:42:04;16.95;;;11.48;;
3297;SDS011;1661;53.572;10.174;2024-01-06T06:44:31;14.82;;;12.00;;
3297;SDS011;1661;53.572;10.174;2024-01-06T06:46:58;14.45;;;10.80;;
3297;SDS011;1661;53.572;10.174;2024-01-06T06:49:24;12.05;;;8.68;;
3297;SDS011;1661;53.572;10.174;2024-01-06T06:51:51;18.55;;;11.30;;
3297;SDS011;1661;53.572;10.174;2024-01-06T06:54:18;17.65;;;11.38;;
3297;SDS011;1661;53.572;10.174;2024-01-06T06:56:46;12.90;;;9.65;;
3297;SDS011;1661;53.572;10.174;2024-01-06T06:59:13;21.27;;;12.52;;
3297;SDS011;1661;53.572;10.174;2024-01-06T07:01:39;14.30;;;11.65;;
3297;SDS011;1661;53.572;10.174;2024-01-06T07:04:06;12.75;;;11.07;;
3297;SDS011;1661;53.572;10.174;2024-01-06T07:06:33;17.67;;;11.90;;
3297;SDS011;1661;53.572;10.174;2024-01-06T07:09:00;16.08;;;11.18;;
3297;SDS011;1661;53.572;10.174;2024-01-06T07:11:26;12.75;;;9.55;;
3297;SDS011;1661;53.572;10.174;2024-01-06T07:13:55;18.90;;;11.73;;
3297;SDS011;1661;53.572;10.174;2024-01-06T07:16:21;15.80;;;11.98;;
3297;SDS011;1661;53.572;10.174;2024-01-06T07:18:48;16.70;;;12.23;;
3297;SDS011;1661;53.572;10.174;2024-01-06T07:21:15;14.43;;;12.63;;
3297;SDS011;1661;53.572;10.174;2024-01-06T07:23:41;16.75;;;11.82;;
3297;SDS011;1661;53.572;10.174;2024-01-06T07:26:08;17.02;;;13.70;;
3297;SDS011;1661;53.572;10.174;2024-01-06T07:28:35;19.52;;;11.85;;
3297;SDS011;1661;53.572;10.174;2024-01-06T07:31:02;18.93;;;12.00;;
3297;SDS011;1661;53.572;10.174;2024-01-06T07:33:30;14.38;;;11.65;;
3297;SDS011;1661;53.572;10.174;2024-01-06T07:35:57;15.45;;;11.77;;
3297;SDS011;1661;53.572;10.174;2024-01-06T07:38:24;14.88;;;11.20;;
3297;SDS011;1661;53.572;10.174;2024-01-06T07:40:50;16.58;;;11.65;;
3297;SDS011;1661;53.572;10.174;2024-01-06T07:43:19;16.85;;;13.10;;
3297;SDS011;1661;53.572;10.174;2024-01-06T07:45:46;15.50;;;12.00;;
3297;SDS011;1661;53.572;10.174;2024-01-06T07:48:14;17.50;;;13.02;;
3297;SDS011;1661;53.572;10.174;2024-01-06T07:50:41;16.33;;;12.77;;
3297;SDS011;1661;53.572;10.174;2024-01-06T07:53:08;12.95;;;9.40;;
3297;SDS011;1661;53.572;10.174;2024-01-06T07:55:35;16.35;;;11.43;;
3297;SDS011;1661;53.572;10.174;2024-01-06T07:58:03;16.98;;;12.57;;
3297;SDS011;1661;53.572;10.174;2024-01-06T08:00:30;16.73;;;11.30;;
3297;SDS011;1661;53.572;10.174;2024-01-06T08:02:56;16.33;;;11.25;;
3297;SDS011;1661;53.572;10.174;2024-01-06T08:05:25;16.23;;;11.45;;
3297;SDS011;1661;53.572;10.174;2024-01-06T08:07:51;14.55;;;10.23;;
3297;SDS011;1661;53.572;10.174;2024-01-06T08:10:18;15.50;;;10.70;;
3297;SDS011;1661;53.572;10.174;2024-01-06T08:12:46;18.40;;;13.00;;
3297;SDS011;1661;53.572;10.174;2024-01-06T08:15:13;16.58;;;9.80;;
3297;SDS011;1661;53.572;10.174;2024-01-06T08:17:40;13.57;;;10.63;;
3297;SDS011;1661;53.572;10.174;2024-01-06T08:20:08;13.10;;;10.70;;
3297;SDS011;1661;53.572;10.174;2024-01-06T08:22:39;15.43;;;10.90;;
3297;SDS011;1661;53.572;10.174;2024-01-06T08:25:06;8.80;;;7.90;;
3297;SDS011;1661;53.572;10.174;2024-01-06T08:27:34;15.75;;;10.65;;
3297;SDS011;1661;53.572;10.174;2024-01-06T08:30:01;17.67;;;10.55;;
3297;SDS011;1661;53.572;10.174;2024-01-06T08:32:28;19.92;;;10.85;;
3297;SDS011;1661;53.572;10.174;2024-01-06T08:34:54;13.73;;;10.20;;
3297;SDS011;1661;53.572;10.174;2024-01-06T08:37:21;14.73;;;9.30;;
3297;SDS011;1661;53.572;10.174;2024-01-06T08:39:49;17.30;;;11.63;;
3297;SDS011;1661;53.572;10.174;2024-01-06T08:42:16;20.50;;;13.13;;
3297;SDS011;1661;53.572;10.174;2024-01-06T08:44:43;13.52;;;11.25;;
3297;SDS011;1661;53.572;10.174;2024-01-06T08:47:10;15.48;;;10.75;;
3297;SDS011;1661;53.572;10.174;2024-01-06T08:49:37;17.95;;;11.77;;
3297;SDS011;1661;53.572;10.174;2024-01-06T08:52:04;15.32;;;11.32;;
3297;SDS011;1661;53.572;10.174;2024-01-06T08:54:31;19.35;;;13.00;;
3297;SDS011;1661;53.572;10.174;2024-01-06T08:56:59;20.15;;;13.48;;
3297;SDS011;1661;53.572;10.174;2024-01-06T08:59:26;13.07;;;9.35;;
3297;SDS011;1661;53.572;10.174;2024-01-06T09:01:53;16.42;;;10.93;;
3297;SDS011;1661;53.572;10.174;2024-01-06T09:04:20;19.73;;;10.23;;
3297;SDS011;1661;53.572;10.174;2024-01-06T09:06:47;12.70;;;10.15;;
3297;SDS011;1661;53.572;10.174;2024-01-06T09:09:15;17.58;;;10.73;;
3297;SDS011;1661;53.572;10.174;2024-01-06T09:11:42;18.42;;;12.25;;
3297;SDS011;1661;53.572;10.174;2024-01-06T09:14:12;13.55;;;10.38;;
3297;SDS011;1661;53.572;10.174;2024-01-06T09:16:39;12.73;;;10.70;;
3297;SDS011;1661;53.572;10.174;2024-01-06T09:19:06;15.13;;;10.23;;
3297;SDS011;1661;53.572;10.174;2024-01-06T09:21:33;17.58;;;10.10;;
3297;SDS011;1661;53.572;10.174;2024-01-06T09:24:00;17.00;;;12.95;;
3297;SDS011;1661;53.572;10.174;2024-01-06T09:26:31;17.17;;;10.05;;
3297;SDS011;1661;53.572;10.174;2024-01-06T09:28:58;16.30;;;12.40;;
3297;SDS011;1661;53.572;10.174;2024-01-06T09:31:26;13.27;;;9.80;;
3297;SDS011;1661;53.572;10.174;2024-01-06T09:33:53;13.10;;;10.70;;
3297;SDS011;1661;53.572;10.174;2024-01-06T09:36:19;16.58;;;10.82;;
3297;SDS011;1661;53.572;10.174;2024-01-06T09:38:46;17.15;;;11.18;;
3297;SDS011;1661;53.572;10.174;2024-01-06T09:41:13;14.85;;;10.43;;
3297;SDS011;1661;53.572;10.174;2024-01-06T09:43:40;14.63;;;11.48;;
3297;SDS011;1661;53.572;10.174;2024-01-06T09:46:10;15.85;;;11.77;;
3297;SDS011;1661;53.572;10.174;2024-01-06T09:48:42;17.52;;;11.57;;
3297;SDS011;1661;53.572;10.174;2024-01-06T09:51:11;12.02;;;9.20;;
3297;SDS011;1661;53.572;10.174;2024-01-06T09:53:40;13.48;;;10.50;;
3297;SDS011;1661;53.572;10.174;2024-01-06T09:56:14;17.08;;;10.90;;
3297;SDS011;1661;53.572;10.174;2024-01-06T09:58:42;13.82;;;10.45;;
3297;SDS011;1661;53.572;10.174;2024-01-06T10:01:10;14.25;;;9.35;;
3297;SDS011;1661;53.572;10.174;2024-01-06T10:03:39;14.38;;;9.68;;
3297;SDS011;1661;53.572;10.174;2024-01-06T10:06:07;12.80;;;11.50;;
3297;SDS011;1661;53.572;10.174;2024-01-06T10:08:34;19.65;;;11.27;;
3297;SDS011;1661;53.572;10.174;2024-01-06T10:11:01;14.82;;;10.70;;
3297;SDS011;1661;53.572;10.174;2024-01-06T10:13:28;12.48;;;10.40;;
3297;SDS011;1661;53.572;10.174;2024-01-06T10:15:55;15.77;;;10.05;;
3297;SDS011;1661;53.572;10.174;2024-01-06T10:18:23;12.50;;;10.40;;
3297;SDS011;1661;53.572;10.174;2024-01-06T10:20:51;13.73;;;9.73;;
3297;SDS011;1661;53.572;10.174;2024-01-06T10:23:20;13.77;;;9.88;;
3297;SDS011;1661;53.572;10.174;2024-01-06T10:25:51;10.88;;;9.75;;
3297;SDS011;1661;53.572;10.174;2024-01-06T10:28:18;18.67;;;10.32;;
3297;SDS011;1661;53.572;10.174;2024-01-06T10:30:46;15.13;;;9.05;;
3297;SDS011;1661;53.572;10.174;2024-01-06T10:33:13;12.27;;;9.65;;
3297;SDS011;1661;53.572;10.174;2024-01-06T10:35:40;16.23;;;11.88;;
3297;SDS011;1661;53.572;10.174;2024-01-06T10:38:07;12.98;;;10.93;;
3297;SDS011;1661;53.572;10.174;2024-01-06T10:40:35;15.82;;;11.73;;
3297;SDS011;1661;53.572;10.174;2024-01-06T10:43:02;12.25;;;10.07;;
3297;SDS011;1661;53.572;10.174;2024-01-06T10:45:29;11.75;;;9.77;;
3297;SDS011;1661;53.572;10.174;2024-01-06T10:47:56;11.63;;;8.95;;
3297;SDS011;1661;53.572;10.174;2024-01-06T10:50:23;12.38;;;8.85;;
3297;SDS011;1661;53.572;10.174;2024-01-06T10:52:52;12.00;;;9.35;;
3297;SDS011;1661;53.572;10.174;2024-01-06T10:55:21;9.75;;;8.55;;
3297;SDS011;1661;53.572;10.174;2024-01-06T10:57:49;14.90;;;9.32;;
3297;SDS011;1661;53.572;10.174;2024-01-06T11:00:18;16.15;;;9.95;;
3297;SDS011;1661;53.572;10.174;2024-01-06T11:02:46;13.27;;;9.63;;
3297;SDS011;1661;53.572;10.174;2024-01-06T11:05:17;13.10;;;9.25;;
3297;SDS011;1661;53.572;10.174;2024-01-06T11:07:46;11.15;;;8.15;;
3297;SDS011;1661;53.572;10.174;2024-01-06T11:10:17;13.85;;;8.20;;
3297;SDS011;1661;53.572;10.174;2024-01-06T11:12:45;14.25;;;9.70;;
3297;SDS011;1661;53.572;10.174;2024-01-06T11:15:26;11.60;;;8.20;;
3297;SDS011;1661;53.572;10.174;2024-01-06T11:18:05;16.13;;;9.77;;
3297;SDS011;1661;53.572;10.174;2024-01-06T11:20:32;17.95;;;11.27;;
3297;SDS011;1661;53.572;10.174;2024-01-06T11:25:45;19.50;;;11.90;;
3297;SDS011;1661;53.572;10.174;2024-01-06T11:28:12;11.98;;;9.95;;
3297;SDS011;1661;53.572;10.174;2024-01-06T11:30:40;12.55;;;7.85;;
3297;SDS011;1661;53.572;10.174;2024-01-06T11:33:08;14.95;;;10.20;;
3297;SDS011;1661;53.572;10.174;2024-01-06T11:35:36;10.90;;;9.18;;
3297;SDS011;1661;53.572;10.174;2024-01-06T11:38:06;13.35;;;10.32;;
3297;SDS011;1661;53.572;10.174;2024-01-06T11:40:33;13.30;;;10.13;;
3297;SDS011;1661;53.572;10.174;2024-01-06T11:43:02;12.25;;;9.75;;
3297;SDS011;1661;53.572;10.174;2024-01-06T11:45:30;10.53;;;9.43;;
3297;SDS011;1661;53.572;10.174;2024-01-06T11:48:00;11.82;;;7.85;;
3297;SDS011;1661;53.572;10.174;2024-01-06T11:50:28;9.77;;;8.43;;
3297;SDS011;1661;53.572;10.174;2024-01-06T11:52:57;7.72;;;6.13;;
3297;SDS011;1661;53.572;10.174;2024-01-06T11:55:25;12.52;;;8.70;;
3297;SDS011;1661;53.572;10.174;2024-01-06T11:57:54;9.15;;;6.45;;
3297;SDS011;1661;53.572;10.174;2024-01-06T12:00:22;6.90;;;6.20;;
3297;SDS011;1661;53.572;10.174;2024-01-06T12:02:49;15.68;;;6.35;;
3297;SDS011;1661;53.572;10.174;2024-01-06T12:05:22;9.27;;;7.20;;
3297;SDS011;1661;53.572;10.174;2024-01-06T12:07:53;7.35;;;6.40;;
3297;SDS011;1661;53.572;10.174;2024-01-06T12:10:21;9.20;;;6.93;;
3297;SDS011;1661;53.572;10.174;2024-01-06T12:12:55;10.20;;;8.27;;
3297;SDS011;1661;53.572;10.174;2024-01-06T12:15:24;9.90;;;7.25;;
3297;SDS011;1661;53.572;10.174;2024-01-06T12:17:51;8.35;;;6.32;;
3297;SDS011;1661;53.572;10.174;2024-01-06T12:20:18;9.77;;;8.73;;
3297;SDS011;1661;53.572;10.174;2024-01-06T12:22:46;11.52;;;7.57;;
3297;SDS011;1661;53.572;10.174;2024-01-06T12:25:14;8.20;;;7.05;;
3297;SDS011;1661;53.572;10.174;2024-01-06T12:27:42;11.30;;;8.05;;
3297;SDS011;1661;53.572;10.174;2024-01-06T12:30:12;7.50;;;6.72;;
3297;SDS011;1661;53.572;10.174;2024-01-06T12:32:40;9.20;;;6.72;;
3297;SDS011;1661;53.572;10.174;2024-01-06T12:35:08;7.40;;;6.40;;
3297;SDS011;1661;53.572;10.174;2024-01-06T12:37:36;9.07;;;7.75;;
3297;SDS011;1661;53.572;10.174;2024-01-06T12:40:05;13.50;;;7.93;;
3297;SDS011;1661;53.572;10.174;2024-01-06T12:42:35;7.93;;;7.22;;
3297;SDS011;1661;53.572;10.174;2024-01-06T12:45:03;11.40;;;7.38;;
3297;SDS011;1661;53.572;10.174;2024-01-06T12:47:30;8.52;;;7.72;;
3297;SDS011;1661;53.572;10.174;2024-01-06T12:49:57;7.85;;;5.82;;
3297;SDS011;1661;53.572;10.174;2024-01-06T12:52:24;7.80;;;7.10;;
3297;SDS011;1661;53.572;10.174;2024-01-06T12:54:51;7.90;;;7.10;;
3297;SDS011;1661;53.572;10.174;2024-01-06T12:57:19;8.05;;;6.03;;
3297;SDS011;1661;53.572;10.174;2024-01-06T12:59:46;9.40;;;6.50;;
3297;SDS011;1661;53.572;10.174;2024-01-06T13:02:13;8.77;;;7.03;;
3297;SDS011;1661;53.572;10.174;2024-01-06T13:04:40;6.88;;;6.18;;
3297;SDS011;1661;53.572;10.174;2024-01-06T13:07:06;9.43;;;6.63;;
3297;SDS011;1661;53.572;10.174;2024-01-06T13:09:33;6.40;;;5.65;;
3297;SDS011;1661;53.572;10.174;2024-01-06T13:12:00;8.13;;;6.60;;
3297;SDS011;1661;53.572;10.174;2024-01-06T13:14:28;6.40;;;5.70;;
3297;SDS011;1661;53.572;10.174;2024-01-06T13:16:56;7.13;;;5.18;;
3297;SDS011;1661;53.572;10.174;2024-01-06T13:19:23;6.45;;;5.43;;
3297;SDS011;1661;53.572;10.174;2024-01-06T13:21:52;6.93;;;5.05;;
3297;SDS011;1661;53.572;10.174;2024-01-06T13:24:18;6.00;;;4.65;;
3297;SDS011;1661;53.572;10.174;2024-01-06T13:26:45;5.63;;;5.13;;
3297;SDS011;1661;53.572;10.174;2024-01-06T13:29:15;12.30;;;5.10;;
3297;SDS011;1661;53.572;10.174;2024-01-06T13:31:44;13.57;;;6.63;;
3297;SDS011;1661;53.572;10.174;2024-01-06T13:34:11;7.60;;;6.50;;
3297;SDS011;1661;53.572;10.174;2024-01-06T13:36:38;6.47;;;5.53;;
3297;SDS011;1661;53.572;10.174;2024-01-06T13:39:04;10.20;;;6.22;;
3297;SDS011;1661;53.572;10.174;2024-01-06T13:41:32;6.38;;;5.75;;
3297;SDS011;1661;53.572;10.174;2024-01-06T13:43:58;7.32;;;6.10;;
3297;SDS011;1661;53.572;10.174;2024-01-06T13:46:25;7.72;;;6.60;;
3297;SDS011;1661;53.572;10.174;2024-01-06T13:48:53;9.38;;;6.15;;
3297;SDS011;1661;53.572;10.174;2024-01-06T13:51:20;6.28;;;5.40;;
3297;SDS011;1661;53.572;10.174;2024-01-06T13:53:47;9.20;;;6.35;;
3297;SDS011;1661;53.572;10.174;2024-01-06T13:56:14;9.85;;;6.18;;
3297;SDS011;1661;53.572;10.174;2024-01-06T13:58:41;8.10;;;5.50;;
3297;SDS011;1661;53.572;10.174;2024-01-06T14:01:08;6.85;;;5.30;;
3297;SDS011;1661;53.572;10.174;2024-01-06T14:03:36;5.57;;;5.03;;
3297;SDS011;1661;53.572;10.174;2024-01-06T14:06:04;5.53;;;5.10;;
3297;SDS011;1661;53.572;10.174;2024-01-06T14:08:34;5.50;;;4.45;;
3297;SDS011;1661;53.572;10.174;2024-01-06T14:11:00;6.15;;;4.70;;
3297;SDS011;1661;53.572;10.174;2024-01-06T14:13:27;6.45;;;4.53;;
3297;SDS011;1661;53.572;10.174;2024-01-06T14:15:54;7.15;;;5.13;;
3297;SDS011;1661;53.572;10.174;2024-01-06T14:18:22;9.38;;;7.43;;
3297;SDS011;1661;53.572;10.174;2024-01-06T14:20:48;6.30;;;5.70;;
3297;SDS011;1661;53.572;10.174;2024-01-06T14:23:17;7.47;;;5.70;;
3297;SDS011;1661;53.572;10.174;2024-01-06T14:25:45;8.15;;;5.82;;
3297;SDS011;1661;53.572;10.174;2024-01-06T14:28:12;8.60;;;6.18;;
3297;SDS011;1661;53.572;10.174;2024-01-06T14:30:38;7.35;;;5.82;;
3297;SDS011;1661;53.572;10.174;2024-01-06T14:33:05;6.53;;;5.93;;
3297;SDS011;1661;53.572;10.174;2024-01-06T14:35:32;6.38;;;5.80;;
3297;SDS011;1661;53.572;10.174;2024-01-06T14:37:59;8.52;;;6.03;;
3297;SDS011;1661;53.572;10.174;2024-01-06T14:40:27;9.05;;;6.47;;
3297;SDS011;1661;53.572;10.174;2024-01-06T14:42:54;7.15;;;6.15;;
3297;SDS011;1661;53.572;10.174;2024-01-06T14:45:22;9.88;;;6.85;;
3297;SDS011;1661;53.572;10.174;2024-01-06T14:47:49;7.35;;;6.15;;
3297;SDS011;1661;53.572;10.174;2024-01-06T14:50:16;8.48;;;6.63;;
3297;SDS011;1661;53.572;10.174;2024-01-06T14:52:43;7.35;;;6.30;;